Time;durP1;ratioP1;P1;durP2;ratioP2;P2;SDS_P1;SDS_P2;PMS_P1;PMS_P2;Temp;Humidity;BMP_temperature;BMP_pressure;BME280_temperature;BME280_humidity;BME280_pressure;Samples;Min_cycle;Max_cycle;Signal;HPM_P1;HPM_P2
2022/04/25 00:01:00;;;;;;;1.98;1.50;;;;;;;;;;5071036;28;20089;-47
2022/04/25 00:03:26;;;;;;;1.63;1.50;;;;;;;;;;5072032;28;20457;-47
2022/04/25 00:05:52;;;;;;;1.50;1.40;;;;;;;;;;5066542;28;20044;-48
2022/04/25 00:08:18;;;;;;;1.83;1.48;;;;;;;;;;5071958;28;20016;-47
2022/04/25 00:10:45;;;;;;;1.98;1.52;;;;;;;;;;5071324;28;20021;-56
2022/04/25 00:13:13;;;;;;;2.40;1.55;;;;;;;;;;5061438;28;20064;-48
2022/04/25 00:15:39;;;;;;;1.70;1.40;;;;;;;;;;5071840;28;20029;-47
2022/04/25 00:18:05;;;;;;;1.83;1.70;;;;;;;;;;5071143;28;20538;-47
2022/04/25 00:20:31;;;;;;;3.45;1.90;;;;;;;;;;5070708;28;20082;-47
2022/04/25 00:23:00;;;;;;;1.75;1.65;;;;;;;;;;5070889;28;20033;-48
2022/04/25 00:25:27;;;;;;;3.00;1.60;;;;;;;;;;5071576;28;20016;-49
2022/04/25 00:27:54;;;;;;;2.00;1.42;;;;;;;;;;5069428;28;20394;-47
2022/04/25 00:30:20;;;;;;;1.98;1.45;;;;;;;;;;5071015;28;20424;-50
2022/04/25 00:32:46;;;;;;;2.08;1.67;;;;;;;;;;5067402;28;20035;-55
2022/04/25 00:35:12;;;;;;;1.88;1.70;;;;;;;;;;5071360;28;20028;-47
2022/04/25 00:37:38;;;;;;;2.20;1.50;;;;;;;;;;5069518;28;20029;-49
2022/04/25 00:40:04;;;;;;;1.92;1.45;;;;;;;;;;5070935;28;20134;-49
2022/04/25 00:42:30;;;;;;;2.03;1.58;;;;;;;;;;5071271;28;20033;-47
2022/04/25 00:44:59;;;;;;;2.10;1.50;;;;;;;;;;5074248;28;20036;-47
2022/04/25 00:47:25;;;;;;;1.73;1.50;;;;;;;;;;5075830;28;20104;-48
2022/04/25 00:49:51;;;;;;;2.50;1.70;;;;;;;;;;5074686;28;20025;-49
2022/04/25 00:52:18;;;;;;;1.95;1.63;;;;;;;;;;5074542;28;20032;-48
2022/04/25 00:54:45;;;;;;;2.17;1.85;;;;;;;;;;5075826;28;20025;-55
2022/04/25 00:57:11;;;;;;;1.50;1.40;;;;;;;;;;5075083;28;20036;-51
2022/04/25 00:59:37;;;;;;;3.17;2.15;;;;;;;;;;5076055;28;20043;-48
2022/04/25 01:02:05;;;;;;;1.60;1.45;;;;;;;;;;5075220;28;20028;-47
2022/04/25 01:04:31;;;;;;;2.30;1.60;;;;;;;;;;5074874;28;20470;-48
2022/04/25 01:06:57;;;;;;;2.08;1.70;;;;;;;;;;5073876;28;20484;-47
2022/04/25 01:09:25;;;;;;;2.05;1.55;;;;;;;;;;5075556;28;20024;-47
2022/04/25 01:11:52;;;;;;;2.15;1.42;;;;;;;;;;5072755;28;20426;-48
2022/04/25 01:14:19;;;;;;;1.48;1.30;;;;;;;;;;5074991;28;20074;-48
2022/04/25 01:16:46;;;;;;;2.58;2.33;;;;;;;;;;5074963;28;20028;-47
2022/04/25 01:19:12;;;;;;;2.28;1.73;;;;;;;;;;5074265;28;20103;-49
2022/04/25 01:21:44;;;;;;;2.30;1.52;;;;;;;;;;5074882;28;20029;-47
2022/04/25 01:29:40;;;;;;;2.20;1.90;;;;;;;;;;5074452;28;20032;-47
2022/04/25 01:32:06;;;;;;;3.22;2.00;;;;;;;;;;5073736;28;20036;-47
2022/04/25 01:34:33;;;;;;;2.55;1.75;;;;;;;;;;5074621;28;20086;-46
2022/04/25 01:37:01;;;;;;;1.70;1.60;;;;;;;;;;5073683;28;20070;-47
2022/04/25 01:39:27;;;;;;;2.28;2.08;;;;;;;;;;5074459;28;20103;-48
2022/04/25 01:41:54;;;;;;;1.77;1.60;;;;;;;;;;5073670;28;20425;-47
2022/04/25 01:44:19;;;;;;;2.55;2.30;;;;;;;;;;5075099;28;20017;-47
2022/04/25 01:46:45;;;;;;;1.85;1.42;;;;;;;;;;5074396;28;20099;-47
2022/04/25 01:49:11;;;;;;;2.58;2.00;;;;;;;;;;5074192;28;20035;-47
2022/04/25 01:51:39;;;;;;;2.47;1.70;;;;;;;;;;5074180;28;20470;-48
2022/04/25 01:54:05;;;;;;;2.10;1.70;;;;;;;;;;5073341;28;20024;-47
2022/04/25 01:56:32;;;;;;;2.25;2.05;;;;;;;;;;5074434;28;20031;-47
2022/04/25 01:58:58;;;;;;;3.08;1.98;;;;;;;;;;5073595;28;20024;-47
2022/04/25 02:01:24;;;;;;;2.55;1.80;;;;;;;;;;5073838;28;20025;-47
2022/04/25 02:03:50;;;;;;;1.80;1.60;;;;;;;;;;5073964;28;20032;-55
2022/04/25 02:06:16;;;;;;;2.83;1.92;;;;;;;;;;5073405;28;20162;-47
2022/04/25 02:08:43;;;;;;;1.85;1.50;;;;;;;;;;5073669;28;20032;-48
2022/04/25 02:11:25;;;;;;;1.92;1.73;;;;;;;;;;5073125;28;20351;-47
2022/04/25 02:13:51;;;;;;;;;;;;;;;;;;5073734;28;20029;-54
2022/04/25 02:16:18;;;;;;;4.25;1.60;;;;;;;;;;5073728;28;19905;-48
2022/04/25 02:18:44;;;;;;;3.33;2.15;;;;;;;;;;5074110;28;20372;-49
2022/04/25 02:21:10;;;;;;;2.35;1.95;;;;;;;;;;5072855;28;20032;-49
2022/04/25 02:23:36;;;;;;;2.28;1.95;;;;;;;;;;5073808;28;20048;-49
2022/04/25 02:26:02;;;;;;;2.70;2.08;;;;;;;;;;5073068;28;20040;-53
2022/04/25 02:28:28;;;;;;;3.38;1.80;;;;;;;;;;5073304;28;20098;-46
2022/04/25 02:30:54;;;;;;;1.90;1.73;;;;;;;;;;5072556;28;20024;-56
2022/04/25 02:33:20;;;;;;;2.65;1.50;;;;;;;;;;5073379;28;20112;-48
2022/04/25 02:35:48;;;;;;;2.45;1.80;;;;;;;;;;5073821;28;20025;-48
2022/04/25 02:38:14;;;;;;;2.28;2.00;;;;;;;;;;5072760;28;20099;-48
2022/04/25 02:40:40;;;;;;;2.22;1.70;;;;;;;;;;5073567;28;20021;-48
2022/04/25 02:43:06;;;;;;;2.25;1.83;;;;;;;;;;5072366;28;20150;-47
2022/04/25 02:45:32;;;;;;;2.50;1.92;;;;;;;;;;5073211;28;20389;-48
2022/04/25 02:47:58;;;;;;;2.08;1.80;;;;;;;;;;5072190;28;20036;-51
2022/04/25 02:50:24;;;;;;;2.55;2.35;;;;;;;;;;5073347;28;20374;-47
2022/04/25 02:52:53;;;;;;;3.92;2.08;;;;;;;;;;5073053;28;20385;-47
2022/04/25 02:55:19;;;;;;;2.03;1.52;;;;;;;;;;5072982;28;20017;-49
2022/04/25 02:57:46;;;;;;;2.05;1.85;;;;;;;;;;5072730;28;20370;-47
2022/04/25 03:00:12;;;;;;;2.13;1.92;;;;;;;;;;5072302;28;20051;-47
2022/04/25 03:02:38;;;;;;;2.22;1.90;;;;;;;;;;5071352;28;20474;-48
2022/04/25 03:05:04;;;;;;;1.73;1.55;;;;;;;;;;5072233;28;20032;-48
2022/04/25 03:07:30;;;;;;;2.03;1.83;;;;;;;;;;5071952;28;20473;-47
2022/04/25 03:09:57;;;;;;;2.17;1.98;;;;;;;;;;5072005;28;20016;-55
2022/04/25 03:12:23;;;;;;;2.35;2.05;;;;;;;;;;5072005;28;20512;-50
2022/04/25 03:14:49;;;;;;;2.10;1.88;;;;;;;;;;5073007;28;20064;-47
2022/04/25 03:17:15;;;;;;;2.30;2.00;;;;;;;;;;5071750;28;20024;-47
2022/04/25 03:19:41;;;;;;;2.95;2.13;;;;;;;;;;5072625;28;20486;-47
2022/04/25 03:22:07;;;;;;;2.22;2.03;;;;;;;;;;5071664;28;20039;-47
2022/04/25 03:24:33;;;;;;;2.40;1.73;;;;;;;;;;5071362;28;20029;-47
2022/04/25 03:26:59;;;;;;;2.65;2.00;;;;;;;;;;5071293;28;20059;-47
2022/04/25 03:29:25;;;;;;;1.90;1.70;;;;;;;;;;5072607;28;20082;-48
2022/04/25 03:31:52;;;;;;;2.42;1.80;;;;;;;;;;5072476;28;20044;-47
2022/04/25 03:34:18;;;;;;;2.42;2.22;;;;;;;;;;5071742;28;20497;-47
2022/04/25 03:36:44;;;;;;;3.42;2.00;;;;;;;;;;5072623;28;20032;-47
2022/04/25 03:39:10;;;;;;;2.03;1.83;;;;;;;;;;5072000;28;20519;-48
2022/04/25 03:41:36;;;;;;;1.95;1.75;;;;;;;;;;5072247;28;20020;-47
2022/04/25 03:44:03;;;;;;;1.90;1.80;;;;;;;;;;5070292;28;20024;-47
2022/04/25 03:46:30;;;;;;;2.42;2.05;;;;;;;;;;5071517;28;20412;-47
2022/04/25 03:48:56;;;;;;;3.53;2.13;;;;;;;;;;5071305;28;20021;-55
2022/04/25 03:51:23;;;;;;;2.67;1.98;;;;;;;;;;5071861;28;20047;-48
2022/04/25 03:53:49;;;;;;;2.50;1.90;;;;;;;;;;5071832;28;20025;-51
2022/04/25 03:59:00;;;;;;;2.03;1.70;;;;;;;;;;5070858;28;20035;-50
2022/04/25 04:01:26;;;;;;;3.75;2.10;;;;;;;;;;5072080;28;20098;-50
2022/04/25 04:03:53;;;;;;;2.38;1.65;;;;;;;;;;5071536;28;20033;-49
2022/04/25 04:06:19;;;;;;;2.10;1.83;;;;;;;;;;5071258;28;20017;-51
2022/04/25 04:08:46;;;;;;;2.65;1.98;;;;;;;;;;5071694;28;20031;-49
2022/04/25 04:11:12;;;;;;;2.00;1.77;;;;;;;;;;5070951;28;20133;-48
2022/04/25 04:13:38;;;;;;;1.67;1.55;;;;;;;;;;5072193;28;20041;-48
2022/04/25 04:16:04;;;;;;;2.75;2.00;;;;;;;;;;5071079;28;20028;-48
2022/04/25 04:18:31;;;;;;;2.83;2.08;;;;;;;;;;5071794;28;20032;-51
2022/04/25 04:20:57;;;;;;;2.70;2.22;;;;;;;;;;5071543;28;20466;-57
2022/04/25 04:23:23;;;;;;;2.20;1.90;;;;;;;;;;5071361;28;20036;-48
2022/04/25 04:25:49;;;;;;;2.50;2.30;;;;;;;;;;5071403;28;20029;-52
2022/04/25 04:28:15;;;;;;;2.60;2.10;;;;;;;;;;5070618;28;20414;-50
2022/04/25 04:30:43;;;;;;;2.40;2.00;;;;;;;;;;5071420;28;20029;-48
2022/04/25 04:33:09;;;;;;;2.10;1.75;;;;;;;;;;5070381;28;20033;-49
2022/04/25 04:38:20;;;;;;;2.38;2.03;;;;;;;;;;5051126;28;20032;-47
2022/04/25 04:40:46;;;;;;;2.25;2.05;;;;;;;;;;5052343;28;20017;-49
2022/04/25 04:43:12;;;;;;;2.30;2.00;;;;;;;;;;5065794;28;20033;-48
2022/04/25 04:45:38;;;;;;;2.88;2.08;;;;;;;;;;5060752;28;20024;-48
2022/04/25 04:48:04;;;;;;;3.20;2.30;;;;;;;;;;5070269;28;20051;-51
2022/04/25 04:50:30;;;;;;;2.38;1.75;;;;;;;;;;5071367;28;20036;-49
2022/04/25 04:52:58;;;;;;;2.88;2.03;;;;;;;;;;5070686;28;20390;-51
2022/04/25 04:55:24;;;;;;;2.53;2.33;;;;;;;;;;5065099;28;20085;-49
2022/04/25 04:57:50;;;;;;;2.70;2.05;;;;;;;;;;5064009;28;20108;-47
2022/04/25 05:00:17;;;;;;;2.10;1.90;;;;;;;;;;5050718;28;20103;-47
2022/04/25 05:02:44;;;;;;;2.50;2.13;;;;;;;;;;5053512;28;20431;-47
2022/04/25 05:05:10;;;;;;;2.90;2.08;;;;;;;;;;5050755;28;20025;-47
2022/04/25 05:07:36;;;;;;;3.13;2.58;;;;;;;;;;5059290;28;20020;-48
2022/04/25 05:10:03;;;;;;;2.15;1.90;;;;;;;;;;5071117;28;20081;-55
2022/04/25 05:12:30;;;;;;;2.28;1.92;;;;;;;;;;5070827;28;20028;-49
2022/04/25 05:14:56;;;;;;;4.03;2.22;;;;;;;;;;5051539;28;20063;-47
2022/04/25 05:17:22;;;;;;;2.53;2.10;;;;;;;;;;5050838;28;20067;-47
2022/04/25 05:19:48;;;;;;;2.58;2.35;;;;;;;;;;5050963;28;20055;-47
2022/04/25 05:22:15;;;;;;;2.72;2.20;;;;;;;;;;5050610;28;20033;-47
2022/04/25 05:24:41;;;;;;;3.50;2.67;;;;;;;;;;5051494;28;20033;-47
2022/04/25 05:27:07;;;;;;;2.30;1.90;;;;;;;;;;5060886;28;20080;-48
2022/04/25 05:29:33;;;;;;;3.25;1.92;;;;;;;;;;5052498;28;20021;-47
2022/04/25 05:31:59;;;;;;;2.47;1.90;;;;;;;;;;5055678;28;20397;-47
2022/04/25 05:34:25;;;;;;;2.58;2.17;;;;;;;;;;5064761;28;20028;-47
2022/04/25 05:36:51;;;;;;;2.25;2.05;;;;;;;;;;5074337;28;20031;-50
2022/04/25 05:39:17;;;;;;;4.07;2.72;;;;;;;;;;5073857;28;20056;-47
2022/04/25 05:41:46;;;;;;;2.03;1.85;;;;;;;;;;5074431;28;20429;-47
2022/04/25 05:44:12;;;;;;;2.25;2.00;;;;;;;;;;5073273;28;20434;-47
2022/04/25 05:46:38;;;;;;;2.70;1.98;;;;;;;;;;5074807;28;20104;-48
2022/04/25 05:51:58;;;;;;;4.07;2.83;;;;;;;;;;5074197;28;20047;-49
2022/04/25 05:54:24;;;;;;;6.40;5.20;;;;;;;;;;5073938;28;20606;-47
2022/04/25 05:56:50;;;;;;;6.78;5.53;;;;;;;;;;5073894;28;20025;-48
2022/04/25 05:59:16;;;;;;;6.95;5.22;;;;;;;;;;5073213;28;20021;-48
2022/04/25 06:01:42;;;;;;;8.00;6.18;;;;;;;;;;5074049;28;20043;-47
2022/04/25 06:04:08;;;;;;;11.05;7.22;;;;;;;;;;5072816;28;20033;-47
2022/04/25 06:06:34;;;;;;;11.77;7.00;;;;;;;;;;5073952;28;20039;-48
2022/04/25 06:09:01;;;;;;;9.13;7.18;;;;;;;;;;5072570;28;20061;-47
2022/04/25 06:11:27;;;;;;;8.50;6.82;;;;;;;;;;5075497;28;20538;-47
2022/04/25 06:13:56;;;;;;;9.73;6.65;;;;;;;;;;5071163;28;20405;-47
2022/04/25 06:16:22;;;;;;;10.25;6.93;;;;;;;;;;5073838;28;20503;-46
2022/04/25 06:18:48;;;;;;;6.90;6.20;;;;;;;;;;5073866;28;20048;-47
2022/04/25 06:21:14;;;;;;;7.20;6.30;;;;;;;;;;5071124;28;20095;-51
2022/04/25 06:23:40;;;;;;;8.55;6.88;;;;;;;;;;5073504;28;20118;-49
2022/04/25 06:26:06;;;;;;;7.88;6.30;;;;;;;;;;5072653;28;20032;-53
2022/04/25 06:28:32;;;;;;;8.07;6.10;;;;;;;;;;5072109;28;20066;-48
2022/04/25 06:30:58;;;;;;;10.35;6.60;;;;;;;;;;5072830;28;20166;-48
2022/04/25 06:33:25;;;;;;;7.28;5.47;;;;;;;;;;5072638;28;20037;-49
2022/04/25 06:35:50;;;;;;;8.40;7.13;;;;;;;;;;5073531;28;20055;-48
2022/04/25 06:38:18;;;;;;;7.75;6.93;;;;;;;;;;5072823;28;20024;-48
2022/04/25 06:40:44;;;;;;;7.80;6.32;;;;;;;;;;5072719;28;20024;-47
2022/04/25 06:43:11;;;;;;;9.60;6.55;;;;;;;;;;5073345;28;20024;-56
2022/04/25 06:45:37;;;;;;;9.27;6.05;;;;;;;;;;5072550;28;20105;-49
2022/04/25 06:48:03;;;;;;;7.40;6.18;;;;;;;;;;5073585;28;20187;-52
2022/04/25 06:50:29;;;;;;;7.82;5.85;;;;;;;;;;5072142;28;20600;-50
2022/04/25 06:52:55;;;;;;;9.07;7.07;;;;;;;;;;5053195;28;20121;-47
2022/04/25 06:55:21;;;;;;;7.38;6.57;;;;;;;;;;5061404;28;20023;-47
2022/04/25 06:57:52;;;;;;;9.32;6.53;;;;;;;;;;5072191;28;20454;-49
2022/04/25 07:00:19;;;;;;;9.35;7.05;;;;;;;;;;5072294;28;20031;-47
2022/04/25 07:02:46;;;;;;;8.60;7.00;;;;;;;;;;5072662;28;20044;-47
2022/04/25 07:05:12;;;;;;;7.32;6.50;;;;;;;;;;5072509;28;20050;-54
2022/04/25 07:07:38;;;;;;;9.32;6.78;;;;;;;;;;5071195;28;20056;-47
2022/04/25 07:10:05;;;;;;;7.45;6.05;;;;;;;;;;5072966;28;20428;-47
2022/04/25 07:12:31;;;;;;;8.82;7.00;;;;;;;;;;5067932;28;20028;-49
2022/04/25 07:14:57;;;;;;;10.52;7.88;;;;;;;;;;5072244;28;20045;-47
2022/04/25 07:17:23;;;;;;;10.85;7.63;;;;;;;;;;5071451;28;20024;-47
2022/04/25 07:19:49;;;;;;;9.43;6.95;;;;;;;;;;5071570;28;20478;-47
2022/04/25 07:30:30;;;;;;;8.95;7.35;;;;;;;;;;5071278;28;20036;-47
2022/04/25 07:32:56;;;;;;;8.20;6.60;;;;;;;;;;5072313;28;20036;-47
2022/04/25 07:35:23;;;;;;;8.93;7.10;;;;;;;;;;5071378;28;20447;-47
2022/04/25 07:37:49;;;;;;;8.25;6.38;;;;;;;;;;5072579;28;20031;-47
2022/04/25 07:40:15;;;;;;;9.52;6.68;;;;;;;;;;5070739;28;20103;-49
2022/04/25 07:42:41;;;;;;;8.88;6.30;;;;;;;;;;5072697;28;20478;-47
2022/04/25 07:45:08;;;;;;;7.95;6.57;;;;;;;;;;5071845;28;20425;-48
2022/04/25 07:47:34;;;;;;;6.93;5.60;;;;;;;;;;5070778;28;20098;-48
2022/04/25 07:50:01;;;;;;;7.13;5.35;;;;;;;;;;5072390;28;20051;-47
2022/04/25 07:52:27;;;;;;;7.55;5.85;;;;;;;;;;5070588;28;20496;-47
2022/04/25 07:54:55;;;;;;;6.63;5.55;;;;;;;;;;5070252;28;20111;-47
2022/04/25 07:57:21;;;;;;;10.13;5.63;;;;;;;;;;5071404;28;20035;-47
2022/04/25 07:59:47;;;;;;;9.95;5.95;;;;;;;;;;5072518;28;20374;-47
2022/04/25 08:02:13;;;;;;;7.35;5.07;;;;;;;;;;5071112;28;20028;-55
2022/04/25 08:04:39;;;;;;;5.63;4.75;;;;;;;;;;5071845;28;20028;-48
2022/04/25 08:07:06;;;;;;;6.63;4.75;;;;;;;;;;5072196;28;20393;-47
2022/04/25 08:09:32;;;;;;;5.35;4.75;;;;;;;;;;5071188;28;20178;-47
2022/04/25 08:20:11;;;;;;;8.00;4.90;;;;;;;;;;5070520;28;20437;-57
2022/04/25 08:22:37;;;;;;;5.57;4.55;;;;;;;;;;5071723;28;20103;-49
2022/04/25 08:25:07;;;;;;;7.72;6.03;;;;;;;;;;5071810;28;20052;-48
2022/04/25 08:27:33;;;;;;;6.15;4.75;;;;;;;;;;5070818;28;20688;-50
2022/04/25 08:29:59;;;;;;;8.30;5.28;;;;;;;;;;5071618;28;20029;-51
2022/04/25 08:32:26;;;;;;;5.70;4.68;;;;;;;;;;5070747;28;20124;-49
2022/04/25 08:34:52;;;;;;;5.03;3.55;;;;;;;;;;5071356;28;20051;-48
2022/04/25 08:37:18;;;;;;;4.00;3.22;;;;;;;;;;5071294;28;20021;-50
2022/04/25 08:39:44;;;;;;;6.40;4.00;;;;;;;;;;5070858;28;20099;-48
2022/04/25 08:42:10;;;;;;;4.53;3.30;;;;;;;;;;5070510;28;20363;-48
2022/04/25 08:44:37;;;;;;;4.20;3.33;;;;;;;;;;5071718;28;20073;-52
2022/04/25 08:47:05;;;;;;;4.78;3.08;;;;;;;;;;5071195;28;20385;-49
2022/04/25 08:49:31;;;;;;;4.55;3.35;;;;;;;;;;5067788;28;20164;-50
2022/04/25 08:51:59;;;;;;;3.67;3.08;;;;;;;;;;5071936;28;20509;-53
2022/04/25 08:54:31;;;;;;;4.18;2.97;;;;;;;;;;5070992;28;20103;-49
2022/04/25 08:56:58;;;;;;;4.45;3.28;;;;;;;;;;5071224;28;20504;-53
2022/04/25 08:59:24;;;;;;;3.58;3.20;;;;;;;;;;5070424;28;20028;-52
2022/04/25 09:01:50;;;;;;;3.55;2.80;;;;;;;;;;5071321;28;20103;-48
2022/04/25 09:04:16;;;;;;;3.05;2.45;;;;;;;;;;5071520;28;20033;-54
2022/04/25 09:06:43;;;;;;;3.38;2.95;;;;;;;;;;5074249;28;20035;-48
2022/04/25 09:09:09;;;;;;;3.28;2.97;;;;;;;;;;5070868;28;20048;-51
2022/04/25 09:14:19;;;;;;;3.45;2.70;;;;;;;;;;5087686;28;20558;-49
2022/04/25 09:16:45;;;;;;;3.20;2.83;;;;;;;;;;5075019;28;20052;-50
2022/04/25 09:19:11;;;;;;;3.35;2.90;;;;;;;;;;5073566;28;20104;-48
2022/04/25 09:21:41;;;;;;;4.25;2.80;;;;;;;;;;5074031;28;20952;-49
2022/04/25 09:24:20;;;;;;;3.42;2.90;;;;;;;;;;5075304;28;20017;-50
2022/04/25 09:26:47;;;;;;;3.72;3.00;;;;;;;;;;5078835;28;20059;-48
2022/04/25 09:29:13;;;;;;;4.50;2.90;;;;;;;;;;5074773;28;20356;-49
2022/04/25 09:31:48;;;;;;;5.10;3.20;;;;;;;;;;5073916;28;20036;-47
2022/04/25 09:34:15;;;;;;;3.90;3.10;;;;;;;;;;5074496;28;20025;-54
2022/04/25 09:36:47;;;;;;;4.70;2.97;;;;;;;;;;5074452;28;20028;-48
2022/04/25 09:39:32;;;;;;;3.97;3.10;;;;;;;;;;5074527;28;20438;-49
2022/04/25 09:41:59;;;;;;;4.18;2.97;;;;;;;;;;5074771;28;20363;-53
2022/04/25 09:44:26;;;;;;;3.55;2.80;;;;;;;;;;5073878;28;20039;-51
2022/04/25 09:46:52;;;;;;;3.45;2.95;;;;;;;;;;5074085;28;20158;-50
2022/04/25 09:49:21;;;;;;;5.35;2.70;;;;;;;;;;5073405;28;20106;-55
2022/04/25 09:52:00;;;;;;;3.05;2.75;;;;;;;;;;5074046;28;20035;-49
2022/04/25 09:54:26;;;;;;;3.75;2.90;;;;;;;;;;5073494;28;20028;-48
2022/04/25 09:56:52;;;;;;;3.25;2.95;;;;;;;;;;5074514;28;20056;-49
2022/04/25 09:59:21;;;;;;;5.07;3.15;;;;;;;;;;5073139;28;20021;-54
2022/04/25 10:02:00;;;;;;;4.40;2.67;;;;;;;;;;5073655;28;20048;-49
2022/04/25 10:04:31;;;;;;;3.13;2.78;;;;;;;;;;5073337;28;20025;-48
2022/04/25 10:06:59;;;;;;;3.20;2.90;;;;;;;;;;5074088;28;20394;-53
2022/04/25 10:09:25;;;;;;;3.30;2.92;;;;;;;;;;5073336;28;20020;-47
2022/04/25 10:11:54;;;;;;;3.42;3.05;;;;;;;;;;5079429;28;20067;-52
2022/04/25 10:14:20;;;;;;;4.43;3.35;;;;;;;;;;5070267;28;20025;-50
2022/04/25 10:16:46;;;;;;;3.42;2.83;;;;;;;;;;5073330;28;20027;-49
2022/04/25 10:19:14;;;;;;;4.55;3.58;;;;;;;;;;5074546;28;20032;-47
2022/04/25 10:21:40;;;;;;;2.90;2.60;;;;;;;;;;5072762;28;20055;-47
2022/04/25 10:24:07;;;;;;;4.05;2.65;;;;;;;;;;5073086;28;20028;-47
2022/04/25 10:26:33;;;;;;;3.50;2.50;;;;;;;;;;5072658;28;20531;-48
2022/04/25 10:29:07;;;;;;;4.97;3.67;;;;;;;;;;5073708;28;20052;-48
2022/04/25 10:31:41;;;;;;;4.47;3.38;;;;;;;;;;5072849;28;20086;-48
2022/04/25 10:34:07;;;;;;;4.38;3.35;;;;;;;;;;5073025;28;20032;-48
2022/04/25 10:36:37;;;;;;;5.90;3.22;;;;;;;;;;5072554;28;20378;-52
2022/04/25 10:39:12;;;;;;;4.38;3.08;;;;;;;;;;5073366;28;20020;-50
2022/04/25 10:44:25;;;;;;;4.25;3.25;;;;;;;;;;5072131;28;20083;-48
2022/04/25 10:47:03;;;;;;;4.38;3.35;;;;;;;;;;5073085;28;20032;-47
2022/04/25 10:49:42;;;;;;;4.38;3.42;;;;;;;;;;5071658;28;20028;-48
2022/04/25 10:52:27;;;;;;;6.28;3.45;;;;;;;;;;5074076;28;20029;-47
2022/04/25 10:55:13;;;;;;;3.80;2.97;;;;;;;;;;5073100;28;20086;-48
2022/04/25 10:57:58;;;;;;;4.43;3.30;;;;;;;;;;5072471;28;20656;-47
2022/04/25 11:00:45;;;;;;;4.35;3.40;;;;;;;;;;5071878;28;20033;-47
2022/04/25 11:03:16;;;;;;;4.20;3.45;;;;;;;;;;5072094;28;20610;-50
2022/04/25 11:05:42;;;;;;;4.55;3.78;;;;;;;;;;5068434;28;20028;-50
2022/04/25 11:08:19;;;;;;;4.60;3.80;;;;;;;;;;5073191;28;20503;-49
2022/04/25 11:10:47;;;;;;;5.03;3.58;;;;;;;;;;5072877;28;20052;-51
2022/04/25 11:13:14;;;;;;;3.95;3.55;;;;;;;;;;5090958;28;20444;-51
2022/04/25 11:15:44;;;;;;;5.07;3.70;;;;;;;;;;5076002;28;20052;-51
2022/04/25 11:18:43;;;;;;;5.70;3.92;;;;;;;;;;5071717;28;20025;-49
2022/04/25 11:21:13;;;;;;;4.25;3.53;;;;;;;;;;5071814;28;20039;-48
2022/04/25 11:23:47;;;;;;;4.80;3.40;;;;;;;;;;5060674;28;20051;-47
2022/04/25 11:26:20;;;;;;;5.55;3.53;;;;;;;;;;5070767;28;20036;-50
2022/04/25 11:28:58;;;;;;;5.45;3.70;;;;;;;;;;5057858;28;20082;-51
2022/04/25 11:31:28;;;;;;;5.97;4.20;;;;;;;;;;5072276;28;20119;-54
2022/04/25 11:33:55;;;;;;;3.97;3.35;;;;;;;;;;5072527;28;20524;-47
2022/04/25 11:36:21;;;;;;;4.53;3.63;;;;;;;;;;5071811;28;20096;-47
2022/04/25 11:41:34;;;;;;;4.18;3.70;;;;;;;;;;5071960;28;20379;-49
2022/04/25 11:44:00;;;;;;;3.97;3.45;;;;;;;;;;5071896;28;20020;-49
2022/04/25 11:46:26;;;;;;;4.70;3.30;;;;;;;;;;5071629;28;20040;-54
2022/04/25 11:48:53;;;;;;;4.88;3.50;;;;;;;;;;5071646;28;20032;-48
2022/04/25 11:51:26;;;;;;;3.28;2.97;;;;;;;;;;5071544;28;20073;-47
2022/04/25 11:53:53;;;;;;;3.70;3.22;;;;;;;;;;5072260;28;20029;-47
2022/04/25 11:56:20;;;;;;;4.15;3.15;;;;;;;;;;5072252;28;20036;-49
2022/04/25 11:58:46;;;;;;;5.18;3.60;;;;;;;;;;5071146;28;20017;-47
2022/04/25 12:01:12;;;;;;;3.67;3.38;;;;;;;;;;5070912;28;20492;-48
2022/04/25 12:03:38;;;;;;;3.75;3.03;;;;;;;;;;5071327;28;20035;-51
2022/04/25 12:06:07;;;;;;;4.32;3.50;;;;;;;;;;5071897;28;20021;-50
2022/04/25 12:16:48;;;;;;;4.55;3.30;;;;;;;;;;5071263;28;20603;-49
2022/04/25 12:19:14;;;;;;;5.03;3.80;;;;;;;;;;5071835;28;20029;-49
2022/04/25 12:21:47;;;;;;;3.65;2.95;;;;;;;;;;5070549;28;20056;-49
2022/04/25 12:24:21;;;;;;;3.92;2.90;;;;;;;;;;5072186;28;20021;-50
2022/04/25 12:26:47;;;;;;;4.55;3.85;;;;;;;;;;5071006;28;20024;-49
2022/04/25 12:29:13;;;;;;;3.92;3.25;;;;;;;;;;5070703;28;20032;-51
2022/04/25 12:31:49;;;;;;;4.28;3.38;;;;;;;;;;5070300;28;20036;-51
2022/04/25 12:34:17;;;;;;;4.15;3.30;;;;;;;;;;5072255;28;20017;-51
2022/04/25 12:36:56;;;;;;;3.92;3.17;;;;;;;;;;5070532;28;20971;-49
2022/04/25 12:39:24;;;;;;;4.90;3.45;;;;;;;;;;5071830;28;20039;-49
2022/04/25 12:41:54;;;;;;;5.43;3.78;;;;;;;;;;5074121;28;20020;-50
2022/04/25 12:44:20;;;;;;;3.13;2.83;;;;;;;;;;5075808;28;20100;-51
2022/04/25 12:46:49;;;;;;;5.30;3.10;;;;;;;;;;5074663;28;20032;-48
2022/04/25 12:49:17;;;;;;;2.83;2.50;;;;;;;;;;5075274;28;20078;-48
2022/04/25 12:51:43;;;;;;;4.07;3.00;;;;;;;;;;5068034;28;20120;-50
2022/04/25 12:54:30;;;;;;;4.38;3.38;;;;;;;;;;5078124;28;20028;-47
2022/04/25 12:57:18;;;;;;;5.28;3.03;;;;;;;;;;5074423;28;20116;-47
2022/04/25 12:59:45;;;;;;;5.20;3.10;;;;;;;;;;5066902;28;20021;-51
2022/04/25 13:02:13;;;;;;;4.30;3.05;;;;;;;;;;5083836;28;20362;-48
2022/04/25 13:04:55;;;;;;;3.95;2.97;;;;;;;;;;5071254;28;20021;-47
2022/04/25 13:07:30;;;;;;;4.13;3.10;;;;;;;;;;5071428;28;20085;-47
2022/04/25 13:09:57;;;;;;;3.28;2.97;;;;;;;;;;5066839;28;20025;-47
2022/04/25 13:12:24;;;;;;;4.28;3.45;;;;;;;;;;5074929;28;20477;-49
2022/04/25 13:14:50;;;;;;;5.00;3.15;;;;;;;;;;5073106;28;20809;-47
2022/04/25 13:17:17;;;;;;;3.50;3.20;;;;;;;;;;5074568;28;20034;-50
2022/04/25 13:19:43;;;;;;;3.92;3.17;;;;;;;;;;5073930;28;20028;-47
2022/04/25 13:22:10;;;;;;;4.15;3.25;;;;;;;;;;5074160;28;20029;-48
2022/04/25 13:24:36;;;;;;;4.18;3.20;;;;;;;;;;5072865;28;20026;-51
2022/04/25 13:27:03;;;;;;;3.35;3.00;;;;;;;;;;5074073;28;20102;-48
2022/04/25 13:29:29;;;;;;;3.42;3.13;;;;;;;;;;5074658;28;20020;-48
2022/04/25 13:31:55;;;;;;;3.50;3.00;;;;;;;;;;5075698;28;20032;-48
2022/04/25 13:34:21;;;;;;;3.42;2.92;;;;;;;;;;5073492;28;20074;-48
2022/04/25 13:36:47;;;;;;;5.00;3.17;;;;;;;;;;5072598;28;20646;-47
2022/04/25 13:39:12;;;;;;;3.97;3.00;;;;;;;;;;5073951;28;20031;-48
2022/04/25 13:41:38;;;;;;;5.20;3.58;;;;;;;;;;5073141;28;20056;-47
2022/04/25 13:44:05;;;;;;;3.92;3.00;;;;;;;;;;5074696;28;20103;-47
2022/04/25 13:46:33;;;;;;;4.15;3.38;;;;;;;;;;5073795;28;20060;-50
2022/04/25 13:48:59;;;;;;;4.00;3.28;;;;;;;;;;5073215;28;20485;-48
2022/04/25 13:51:26;;;;;;;3.13;2.75;;;;;;;;;;5072856;28;20029;-46
2022/04/25 13:53:52;;;;;;;5.05;3.60;;;;;;;;;;5073236;28;20044;-47
2022/04/25 13:56:20;;;;;;;3.90;3.40;;;;;;;;;;5073687;28;20028;-47
2022/04/25 13:58:47;;;;;;;3.72;3.25;;;;;;;;;;5072211;28;20055;-49
2022/04/25 14:01:14;;;;;;;5.38;3.90;;;;;;;;;;5083593;28;20101;-46
2022/04/25 14:03:40;;;;;;;3.47;3.15;;;;;;;;;;5075875;28;20028;-45
2022/04/25 14:06:06;;;;;;;4.75;3.05;;;;;;;;;;5073703;28;20043;-48
2022/04/25 14:08:32;;;;;;;4.75;3.10;;;;;;;;;;5073871;28;20021;-48
2022/04/25 14:10:59;;;;;;;4.85;3.45;;;;;;;;;;5073470;28;20112;-48
2022/04/25 14:13:25;;;;;;;5.30;2.90;;;;;;;;;;5073894;28;20469;-47
2022/04/25 14:15:52;;;;;;;4.97;2.78;;;;;;;;;;5072797;28;20028;-51
2022/04/25 14:18:18;;;;;;;6.85;3.10;;;;;;;;;;5073966;28;20103;-47
2022/04/25 14:20:44;;;;;;;7.00;3.15;;;;;;;;;;5072771;28;20085;-48
2022/04/25 14:23:10;;;;;;;3.58;2.97;;;;;;;;;;5073961;28;20428;-47
2022/04/25 14:25:37;;;;;;;5.13;2.85;;;;;;;;;;5072649;28;20025;-55
2022/04/25 14:28:04;;;;;;;4.65;3.17;;;;;;;;;;5073673;28;20052;-50
2022/04/25 14:30:31;;;;;;;4.32;2.90;;;;;;;;;;5074350;28;20032;-48
2022/04/25 14:32:57;;;;;;;4.88;2.90;;;;;;;;;;5072646;28;20625;-48
2022/04/25 14:35:24;;;;;;;4.00;2.45;;;;;;;;;;5073005;28;20020;-49
2022/04/25 14:37:51;;;;;;;4.88;2.92;;;;;;;;;;5071891;28;20134;-48
2022/04/25 14:40:17;;;;;;;4.32;2.97;;;;;;;;;;5072951;28;20024;-46
2022/04/25 14:42:43;;;;;;;2.97;2.60;;;;;;;;;;5072588;28;20032;-48
2022/04/25 14:45:09;;;;;;;3.40;2.72;;;;;;;;;;5072458;28;20021;-48
2022/04/25 14:47:36;;;;;;;3.95;2.58;;;;;;;;;;5073280;28;20036;-53
2022/04/25 14:55:32;;;;;;;3.30;2.33;;;;;;;;;;5072572;28;20059;-47
2022/04/25 14:57:58;;;;;;;2.83;2.58;;;;;;;;;;5072194;28;20032;-47
2022/04/25 15:00:24;;;;;;;2.60;2.35;;;;;;;;;;5076532;28;20028;-48
2022/04/25 15:02:51;;;;;;;3.33;2.80;;;;;;;;;;5076267;28;20039;-47
2022/04/25 15:05:17;;;;;;;3.72;2.38;;;;;;;;;;5073023;28;20020;-48
2022/04/25 15:07:44;;;;;;;3.88;2.33;;;;;;;;;;5072424;28;20031;-51
2022/04/25 15:10:10;;;;;;;3.55;2.58;;;;;;;;;;5072479;28;20389;-49
2022/04/25 15:12:37;;;;;;;4.10;2.63;;;;;;;;;;5072454;28;20125;-55
2022/04/25 15:15:03;;;;;;;5.95;2.25;;;;;;;;;;5072326;28;20025;-48
2022/04/25 15:17:30;;;;;;;3.55;2.33;;;;;;;;;;5072546;28;20107;-47
2022/04/25 15:19:56;;;;;;;3.50;2.63;;;;;;;;;;5071795;28;20017;-48
2022/04/25 15:22:22;;;;;;;2.75;2.28;;;;;;;;;;5072322;28;20040;-48
2022/04/25 15:24:48;;;;;;;3.13;1.95;;;;;;;;;;5071058;28;20107;-48
2022/04/25 15:27:15;;;;;;;2.53;1.90;;;;;;;;;;5072237;28;20048;-48
2022/04/25 15:29:41;;;;;;;3.30;2.38;;;;;;;;;;5071796;28;20036;-54
2022/04/25 15:32:08;;;;;;;5.28;2.42;;;;;;;;;;5079902;28;20393;-48
2022/04/25 15:34:34;;;;;;;2.50;1.92;;;;;;;;;;5071229;28;20032;-49
2022/04/25 15:37:00;;;;;;;5.10;2.08;;;;;;;;;;5070065;28;20058;-50